createdAt,value
2022-07-28T00:00:24.540Z,0
2022-07-28T00:01:29.429Z,0
2022-07-28T00:02:28.070Z,0
2022-07-28T00:03:24.897Z,0
2022-07-28T00:04:24.992Z,0
2022-07-28T00:05:24.531Z,0
2022-07-28T00:06:24.560Z,0
2022-07-28T00:07:27.540Z,0
2022-07-28T00:08:24.541Z,0
2022-07-28T00:09:24.963Z,0
2022-07-28T00:10:24.536Z,0
2022-07-28T00:11:24.570Z,0
2022-07-28T00:12:24.557Z,0
2022-07-28T00:13:27.399Z,0
2022-07-28T00:14:25.191Z,0
2022-07-28T00:15:25.480Z,0
2022-07-28T00:16:25.136Z,0
2022-07-28T00:17:24.546Z,0
2022-07-28T00:18:27.579Z,0
2022-07-28T00:19:24.547Z,0
2022-07-28T00:20:24.411Z,0
2022-07-28T00:21:24.567Z,0
2022-07-28T00:22:24.546Z,0
2022-07-28T00:23:24.560Z,0
2022-07-28T00:24:27.843Z,0
2022-07-28T00:25:24.562Z,0
2022-07-28T00:26:24.600Z,0
2022-07-28T00:27:26.135Z,0
2022-07-28T00:28:25.602Z,0
2022-07-28T00:29:51.971Z,0
2022-07-28T00:30:24.775Z,0
2022-07-28T00:31:25.442Z,0
2022-07-28T00:32:25.257Z,0
2022-07-28T00:33:24.701Z,0
2022-07-28T00:34:32.287Z,0
2022-07-28T00:35:37.322Z,0
2022-07-28T00:36:31.425Z,0
2022-07-28T00:37:24.575Z,0
2022-07-28T00:38:28.635Z,0
2022-07-28T00:39:24.617Z,0
2022-07-28T00:40:25.625Z,0
2022-07-28T00:41:24.615Z,0
2022-07-28T00:42:24.647Z,0
2022-07-28T00:43:24.607Z,0
2022-07-28T00:44:25.347Z,0
2022-07-28T00:45:24.595Z,0
2022-07-28T00:46:29.168Z,0
2022-07-28T00:47:24.659Z,0
2022-07-28T00:48:24.616Z,0
2022-07-28T00:49:25.064Z,0
2022-07-28T00:50:25.645Z,0
2022-07-28T00:51:27.627Z,0
2022-07-28T00:52:27.540Z,0
2022-07-28T00:53:25.449Z,0
2022-07-28T00:54:25.227Z,0
2022-07-28T00:55:27.606Z,0
2022-07-28T00:56:24.616Z,0
2022-07-28T00:57:27.503Z,0
2022-07-28T00:58:24.628Z,0
2022-07-28T00:59:24.638Z,0
2022-07-28T01:00:24.651Z,0
2022-07-28T01:01:24.998Z,0
2022-07-28T01:02:28.527Z,0
2022-07-28T01:03:24.879Z,0
2022-07-28T01:04:25.187Z,0
2022-07-28T01:05:50.283Z,0
2022-07-28T01:06:24.638Z,0
2022-07-28T01:07:24.665Z,0
2022-07-28T01:08:25.767Z,0
2022-07-28T01:09:24.680Z,0
2022-07-28T01:10:26.468Z,0
2022-07-28T01:11:24.719Z,0
2022-07-28T01:12:24.678Z,0
2022-07-28T01:13:33.236Z,0
2022-07-28T01:14:25.369Z,0
2022-07-28T01:15:24.674Z,0
2022-07-28T01:16:32.048Z,0
2022-07-28T01:17:24.699Z,0
2022-07-28T01:18:24.691Z,0
2022-07-28T01:19:24.655Z,0
2022-07-28T01:20:24.652Z,0
2022-07-28T01:21:24.675Z,0
2022-07-28T01:22:24.701Z,0
2022-07-28T01:23:25.630Z,0
2022-07-28T01:24:29.213Z,0
2022-07-28T01:25:24.669Z,0
2022-07-28T01:26:24.661Z,0
2022-07-28T01:27:24.693Z,0
2022-07-28T01:28:24.666Z,0
2022-07-28T01:29:24.867Z,0
2022-07-28T01:30:31.996Z,0
2022-07-28T01:31:25.120Z,0
2022-07-28T01:32:24.711Z,0
2022-07-28T01:33:24.676Z,0
2022-07-28T01:34:25.106Z,0
2022-07-28T01:35:24.677Z,0
2022-07-28T01:36:24.672Z,0
2022-07-28T01:37:24.921Z,0
2022-07-28T01:38:24.706Z,0
2022-07-28T01:39:24.684Z,0
2022-07-28T01:40:27.512Z,0
2022-07-28T01:41:25.141Z,0
2022-07-28T01:42:24.712Z,0
2022-07-28T01:43:24.686Z,0
2022-07-28T01:44:27.628Z,0
2022-07-28T01:45:24.690Z,0
2022-07-28T01:46:25.129Z,0
2022-07-28T01:47:24.732Z,0
2022-07-28T01:48:24.691Z,0
2022-07-28T01:49:25.030Z,0
2022-07-28T01:50:24.696Z,0
2022-07-28T01:51:27.763Z,0
2022-07-28T01:52:24.740Z,0
2022-07-28T01:53:24.715Z,0
2022-07-28T01:54:25.341Z,0
2022-07-28T01:55:24.723Z,0
2022-07-28T01:56:27.799Z,0
2022-07-28T01:57:24.750Z,0
2022-07-28T01:58:25.964Z,0
2022-07-28T01:59:24.750Z,0
2022-07-28T02:00:26.774Z,0
2022-07-28T02:01:25.055Z,0
2022-07-28T02:02:27.526Z,0
2022-07-28T02:03:24.736Z,0
2022-07-28T02:04:25.514Z,0
2022-07-28T02:05:29.266Z,0
2022-07-28T02:06:24.740Z,0
2022-07-28T02:07:27.801Z,0
2022-07-28T02:08:24.747Z,0
2022-07-28T02:09:24.814Z,0
2022-07-28T02:10:24.821Z,0
2022-07-28T02:11:24.794Z,0
2022-07-28T02:12:26.560Z,0
2022-07-28T02:13:27.945Z,0
2022-07-28T02:14:25.649Z,0
2022-07-28T02:15:24.827Z,0
2022-07-28T02:16:25.377Z,0
2022-07-28T02:17:24.789Z,0
2022-07-28T02:18:29.977Z,0
2022-07-28T02:19:24.783Z,0
2022-07-28T02:20:25.975Z,0
2022-07-28T02:21:24.788Z,0
2022-07-28T02:22:24.813Z,0
2022-07-28T02:23:25.946Z,0
2022-07-28T02:24:25.532Z,0
2022-07-28T02:25:24.784Z,0
2022-07-28T02:26:27.087Z,0
2022-07-28T02:27:24.840Z,0
2022-07-28T02:28:30.252Z,0
2022-07-28T02:29:58.633Z,0
2022-07-28T02:30:24.786Z,0
2022-07-28T02:31:25.386Z,0
2022-07-28T02:32:39.056Z,0
2022-07-28T02:34:09.937Z,0
2022-07-28T02:34:35.926Z,0
2022-07-28T02:35:32.091Z,0
2022-07-28T02:36:27.766Z,0
2022-07-28T02:37:25.676Z,0
2022-07-28T02:38:24.660Z,0
2022-07-28T02:39:24.787Z,0
2022-07-28T02:40:27.581Z,0
2022-07-28T02:41:24.794Z,0
2022-07-28T02:42:24.824Z,0
2022-07-28T02:43:25.094Z,0
2022-07-28T02:44:25.251Z,0
2022-07-28T02:45:27.644Z,0
2022-07-28T02:46:25.264Z,0
2022-07-28T02:47:24.796Z,0
2022-07-28T02:48:24.822Z,0
2022-07-28T02:49:25.467Z,0
2022-07-28T02:50:24.926Z,0
2022-07-28T02:51:26.111Z,0
2022-07-28T02:52:24.804Z,0
2022-07-28T02:53:25.581Z,0
2022-07-28T02:54:28.005Z,0
2022-07-28T02:55:24.828Z,0
2022-07-28T02:56:27.845Z,0
2022-07-28T02:57:24.818Z,0
2022-07-28T02:58:24.846Z,0
2022-07-28T02:59:24.814Z,0
2022-07-28T03:00:24.869Z,0
2022-07-28T03:01:25.482Z,0
2022-07-28T03:02:27.960Z,0
2022-07-28T03:03:24.864Z,0
2022-07-28T03:04:25.629Z,0
2022-07-28T03:05:25.364Z,0
2022-07-28T03:06:33.247Z,0
2022-07-28T03:07:25.941Z,0
2022-07-28T03:08:24.877Z,0
2022-07-28T03:09:24.837Z,0
2022-07-28T03:10:39.909Z,0
2022-07-28T03:11:24.857Z,0
2022-07-28T03:12:24.932Z,0
2022-07-28T03:13:27.743Z,0
2022-07-28T03:14:25.226Z,0
2022-07-28T03:15:24.843Z,0
2022-07-28T03:16:27.453Z,0
2022-07-28T03:17:25.272Z,0
2022-07-28T03:18:27.955Z,0
2022-07-28T03:19:24.861Z,0
2022-07-28T03:20:24.928Z,0
2022-07-28T03:21:24.853Z,0
2022-07-28T03:22:24.855Z,0
2022-07-28T03:23:24.928Z,0
2022-07-28T03:24:28.806Z,0
2022-07-28T03:25:24.883Z,0
2022-07-28T03:26:24.869Z,0
2022-07-28T03:27:24.892Z,0
2022-07-28T03:28:24.917Z,0
2022-07-28T03:29:28.002Z,0
2022-07-28T03:30:25.126Z,0
2022-07-28T03:31:25.340Z,0
2022-07-28T03:32:24.886Z,0
2022-07-28T03:33:24.763Z,0
2022-07-28T03:34:25.684Z,0
2022-07-28T03:35:27.690Z,0
2022-07-28T03:36:24.887Z,0
2022-07-28T03:37:24.892Z,0
2022-07-28T03:38:27.133Z,0
2022-07-28T03:39:24.907Z,0
2022-07-28T03:40:27.835Z,0
2022-07-28T03:41:24.895Z,0
2022-07-28T03:42:24.908Z,0
2022-07-28T03:43:24.927Z,0
2022-07-28T03:44:37.021Z,0
2022-07-28T03:45:24.926Z,0
2022-07-28T03:46:25.129Z,0
2022-07-28T03:47:24.925Z,0
2022-07-28T03:48:24.933Z,0
2022-07-28T03:49:25.344Z,0
2022-07-28T03:50:24.999Z,0
2022-07-28T03:51:27.707Z,0
2022-07-28T03:52:28.268Z,0
2022-07-28T03:53:24.931Z,0
2022-07-28T03:54:25.562Z,0
2022-07-28T03:55:24.933Z,0
2022-07-28T03:56:25.048Z,0
2022-07-28T03:57:24.948Z,0
2022-07-28T03:58:30.917Z,0
2022-07-28T03:59:24.928Z,0
2022-07-28T04:00:24.937Z,0
2022-07-28T04:01:25.369Z,0
2022-07-28T04:02:25.461Z,0
2022-07-28T04:03:51.073Z,0
2022-07-28T04:04:25.409Z,0
2022-07-28T04:05:24.950Z,0
2022-07-28T04:06:25.070Z,0
2022-07-28T04:07:27.758Z,0
2022-07-28T04:08:24.964Z,0
2022-07-28T04:09:24.970Z,0
2022-07-28T04:10:24.968Z,0
2022-07-28T04:11:24.957Z,0
2022-07-28T04:12:25.740Z,0
2022-07-28T04:13:24.980Z,0
2022-07-28T04:14:27.705Z,0
2022-07-28T04:15:24.972Z,0
2022-07-28T04:16:27.167Z,0
2022-07-28T04:17:24.959Z,0
2022-07-28T04:18:27.858Z,0
2022-07-28T04:19:24.962Z,0
2022-07-28T04:20:24.643Z,0
2022-07-28T04:21:24.980Z,0
2022-07-28T04:22:24.963Z,0
2022-07-28T04:23:28.480Z,0
2022-07-28T04:24:26.081Z,0
2022-07-28T04:25:25.006Z,0
2022-07-28T04:26:24.983Z,0
2022-07-28T04:27:24.983Z,5
2022-07-28T04:28:25.008Z,5
2022-07-28T04:29:35.679Z,5
2022-07-28T04:30:30.081Z,5
2022-07-28T04:31:25.476Z,5
2022-07-28T04:32:24.986Z,5
2022-07-28T04:33:25.018Z,5
2022-07-28T04:34:28.821Z,5
2022-07-28T04:35:27.135Z,5
2022-07-28T04:36:24.992Z,5
2022-07-28T04:37:24.994Z,5
2022-07-28T04:38:25.083Z,5
2022-07-28T04:39:28.138Z,5
2022-07-28T04:40:27.769Z,5
2022-07-28T04:41:25.030Z,5
2022-07-28T04:42:24.998Z,5
2022-07-28T04:43:30.402Z,5
2022-07-28T04:44:25.415Z,5
2022-07-28T04:45:28.085Z,5
2022-07-28T04:46:25.384Z,5
2022-07-28T04:47:25.040Z,5
2022-07-28T04:48:26.507Z,5
2022-07-28T04:49:25.456Z,5
2022-07-28T04:50:26.273Z,5
2022-07-28T04:51:24.862Z,5
2022-07-28T04:52:25.037Z,5
2022-07-28T04:53:25.293Z,5
2022-07-28T04:54:31.529Z,10
2022-07-28T04:55:25.054Z,10
2022-07-28T04:56:29.707Z,10
2022-07-28T04:57:30.185Z,10
2022-07-28T04:58:27.806Z,10
2022-07-28T04:59:29.849Z,10
2022-07-28T05:00:27.271Z,10
2022-07-28T05:01:28.243Z,10
2022-07-28T05:02:25.910Z,10
2022-07-28T05:03:25.083Z,10
2022-07-28T05:04:26.634Z,10
2022-07-28T05:05:25.254Z,10
2022-07-28T05:06:25.034Z,10
2022-07-28T05:07:27.869Z,10
2022-07-28T05:08:28.744Z,10
2022-07-28T05:09:25.049Z,10
2022-07-28T05:10:25.076Z,10
2022-07-28T05:11:25.056Z,10
2022-07-28T05:12:28.157Z,5
2022-07-28T05:13:27.890Z,5
2022-07-28T05:14:25.395Z,10
2022-07-28T05:15:25.265Z,10
2022-07-28T05:16:25.656Z,15
2022-07-28T05:17:25.107Z,15
2022-07-28T05:18:27.964Z,10
2022-07-28T05:19:25.119Z,10
2022-07-28T05:20:25.077Z,10
2022-07-28T05:21:31.538Z,10
2022-07-28T05:22:25.152Z,10
2022-07-28T05:23:28.243Z,10
2022-07-28T05:24:25.664Z,10
2022-07-28T05:25:25.106Z,10
2022-07-28T05:26:25.119Z,10
2022-07-28T05:27:25.106Z,10
2022-07-28T05:28:26.160Z,10
2022-07-28T05:29:46.923Z,15
2022-07-28T05:30:25.142Z,15
2022-07-28T05:31:25.472Z,15
2022-07-28T05:32:26.802Z,15
2022-07-28T05:33:34.977Z,15
2022-07-28T05:34:28.438Z,20
2022-07-28T05:35:25.119Z,20
2022-07-28T05:36:25.119Z,20
2022-07-28T05:37:27.969Z,20
2022-07-28T05:38:25.305Z,20
2022-07-28T05:39:25.156Z,20
2022-07-28T05:40:28.245Z,20
2022-07-28T05:41:25.119Z,20
2022-07-28T05:42:25.122Z,20
2022-07-28T05:43:25.158Z,20
2022-07-28T05:44:25.683Z,20
2022-07-28T05:45:28.823Z,20
2022-07-28T05:46:25.853Z,25
2022-07-28T05:47:25.136Z,20
2022-07-28T05:48:25.253Z,20
2022-07-28T05:49:25.643Z,20
2022-07-28T05:50:25.174Z,25
2022-07-28T05:51:27.949Z,20
2022-07-28T05:52:25.122Z,25
2022-07-28T05:53:25.167Z,20
2022-07-28T05:54:26.698Z,20
2022-07-28T05:55:25.146Z,20
2022-07-28T05:56:28.286Z,20
2022-07-28T05:57:25.138Z,25
2022-07-28T05:58:25.903Z,25
2022-07-28T05:59:25.158Z,30
2022-07-28T06:00:25.167Z,30
2022-07-28T06:01:25.639Z,30
2022-07-28T06:02:28.648Z,25
2022-07-28T06:03:25.174Z,25
2022-07-28T06:04:39.185Z,20
2022-07-28T06:05:25.171Z,20
2022-07-28T06:06:26.179Z,20
2022-07-28T06:07:48.026Z,25
2022-07-28T06:08:25.172Z,25
2022-07-28T06:09:25.173Z,30
2022-07-28T06:10:25.185Z,30
2022-07-28T06:11:31.095Z,30
2022-07-28T06:12:25.196Z,35
2022-07-28T06:13:25.201Z,30
2022-07-28T06:14:26.264Z,25
2022-07-28T06:15:25.201Z,30
2022-07-28T06:16:26.075Z,30
2022-07-28T06:17:25.173Z,30
2022-07-28T06:18:28.037Z,35
2022-07-28T06:19:26.991Z,30
2022-07-28T06:20:25.208Z,35
2022-07-28T06:21:25.240Z,35
2022-07-28T06:22:25.212Z,40
2022-07-28T06:23:25.313Z,40
2022-07-28T06:24:25.644Z,40
2022-07-28T06:25:25.289Z,50
2022-07-28T06:26:26.154Z,110
2022-07-28T06:27:25.187Z,155
2022-07-28T06:28:25.229Z,175
2022-07-28T06:29:25.229Z,190
2022-07-28T06:30:25.195Z,190
2022-07-28T06:31:25.836Z,195
2022-07-28T06:32:25.203Z,205
2022-07-28T06:33:26.519Z,215
2022-07-28T06:34:29.818Z,205
2022-07-28T06:35:25.218Z,200
2022-07-28T06:36:25.207Z,215
2022-07-28T06:37:25.218Z,230
2022-07-28T06:38:26.491Z,240
2022-07-28T06:39:26.357Z,240
2022-07-28T06:40:25.280Z,210
2022-07-28T06:41:25.246Z,175
2022-07-28T06:42:25.226Z,140
2022-07-28T06:43:25.210Z,50
2022-07-28T06:44:58.725Z,75
2022-07-28T06:45:32.527Z,130
2022-07-28T06:46:25.719Z,70
2022-07-28T06:47:25.378Z,95
2022-07-28T06:48:31.586Z,250
2022-07-28T06:49:26.651Z,265
2022-07-28T06:50:36.069Z,275
2022-07-28T06:51:25.235Z,280
2022-07-28T06:52:25.280Z,175
2022-07-28T06:53:25.275Z,205
2022-07-28T06:54:29.375Z,100
2022-07-28T06:55:25.391Z,85
2022-07-28T06:56:31.487Z,200
2022-07-28T06:57:35.416Z,105
2022-07-28T06:58:25.242Z,100
2022-07-28T06:59:26.092Z,125
2022-07-28T07:00:25.277Z,45
2022-07-28T07:01:26.859Z,35
2022-07-28T07:02:35.460Z,40
2022-07-28T07:03:25.276Z,35
2022-07-28T07:04:26.597Z,180
2022-07-28T07:05:25.271Z,185
2022-07-28T07:06:28.291Z,180
2022-07-28T07:07:29.390Z,85
2022-07-28T07:08:25.428Z,165
2022-07-28T07:09:25.328Z,80
2022-07-28T07:10:25.319Z,140
2022-07-28T07:11:25.296Z,65
2022-07-28T07:12:28.154Z,135
2022-07-28T07:13:25.278Z,160
2022-07-28T07:14:26.469Z,140
2022-07-28T07:15:25.288Z,150
2022-07-28T07:16:25.702Z,150
2022-07-28T07:17:28.141Z,150
2022-07-28T07:18:25.280Z,145
2022-07-28T07:19:25.312Z,145
2022-07-28T07:20:26.476Z,150
2022-07-28T07:21:28.556Z,140
2022-07-28T07:22:25.462Z,125
2022-07-28T07:23:28.364Z,140
2022-07-28T07:24:30.639Z,140
2022-07-28T07:25:25.308Z,140
2022-07-28T07:26:25.293Z,135
2022-07-28T07:27:25.321Z,135
2022-07-28T07:28:28.395Z,135
2022-07-28T07:29:25.367Z,135
2022-07-28T07:30:25.407Z,135
2022-07-28T07:31:25.768Z,135
2022-07-28T07:32:25.310Z,135
2022-07-28T07:33:25.483Z,135
2022-07-28T07:34:29.317Z,135
2022-07-28T07:35:25.368Z,140
2022-07-28T07:36:25.338Z,135
2022-07-28T07:37:25.331Z,140
2022-07-28T07:38:31.308Z,140
2022-07-28T07:39:28.214Z,145
2022-07-28T07:40:25.337Z,145
2022-07-28T07:41:26.988Z,145
2022-07-28T07:42:29.275Z,145
2022-07-28T07:43:25.327Z,145
2022-07-28T07:44:26.168Z,150
2022-07-28T07:45:28.354Z,150
2022-07-28T07:46:25.649Z,155
2022-07-28T07:47:25.353Z,145
2022-07-28T07:48:25.329Z,145
2022-07-28T07:49:25.938Z,155
2022-07-28T07:50:28.172Z,155
2022-07-28T07:51:25.388Z,160
2022-07-28T07:52:25.347Z,160
2022-07-28T07:53:25.369Z,160
2022-07-28T07:54:26.924Z,155
2022-07-28T07:55:25.380Z,160
2022-07-28T07:56:28.419Z,160
2022-07-28T07:57:25.374Z,155
2022-07-28T07:58:25.369Z,155
2022-07-28T07:59:25.477Z,130
2022-07-28T08:00:38.562Z,160
2022-07-28T08:01:28.667Z,160
2022-07-28T08:02:25.515Z,160
2022-07-28T08:03:35.108Z,155
2022-07-28T08:04:37.048Z,155
2022-07-28T08:05:41.722Z,155
2022-07-28T08:06:33.810Z,150
2022-07-28T08:07:30.444Z,150
2022-07-28T08:08:25.377Z,150
2022-07-28T08:09:25.415Z,145
2022-07-28T08:10:25.402Z,145
2022-07-28T08:11:25.389Z,145
2022-07-28T08:12:31.843Z,145
2022-07-28T08:13:25.428Z,140
2022-07-28T08:14:26.227Z,140
2022-07-28T08:15:25.503Z,140
2022-07-28T08:16:25.824Z,140
2022-07-28T08:17:30.998Z,140
2022-07-28T08:18:28.444Z,135
2022-07-28T08:19:31.098Z,130
2022-07-28T08:20:25.466Z,130
2022-07-28T08:21:25.406Z,125
2022-07-28T08:22:25.484Z,125
2022-07-28T08:23:33.121Z,120
2022-07-28T08:24:41.792Z,120
2022-07-28T08:25:25.510Z,115
2022-07-28T08:26:25.450Z,115
2022-07-28T08:27:25.479Z,110
2022-07-28T08:28:26.437Z,110
2022-07-28T08:29:28.300Z,110
2022-07-28T08:30:37.435Z,105
2022-07-28T08:31:25.839Z,100
2022-07-28T08:32:25.518Z,100
2022-07-28T08:33:25.463Z,100
2022-07-28T08:34:40.878Z,95
2022-07-28T08:35:46.094Z,95
2022-07-28T08:36:25.487Z,95
2022-07-28T08:37:25.481Z,90
2022-07-28T08:38:28.230Z,90
2022-07-28T08:39:26.580Z,90
2022-07-28T08:40:32.203Z,85
2022-07-28T08:41:25.469Z,85
2022-07-28T08:42:25.466Z,85
2022-07-28T08:43:25.667Z,85
2022-07-28T08:44:25.953Z,85
2022-07-28T08:45:37.690Z,85
2022-07-28T08:46:25.921Z,85
2022-07-28T08:47:26.414Z,80
2022-07-28T08:48:25.506Z,80
2022-07-28T08:49:26.148Z,80
2022-07-28T08:50:25.565Z,80
2022-07-28T08:51:25.484Z,80
2022-07-28T08:52:25.469Z,80
2022-07-28T08:53:25.482Z,80
2022-07-28T08:54:26.198Z,80
2022-07-28T08:55:35.792Z,80
2022-07-28T08:56:25.501Z,80
2022-07-28T08:57:25.509Z,75
2022-07-28T08:58:25.479Z,75
2022-07-28T08:59:25.562Z,75
2022-07-28T09:00:25.790Z,75
2022-07-28T09:01:40.692Z,75
2022-07-28T09:02:26.413Z,75
2022-07-28T09:03:26.012Z,75
2022-07-28T09:04:26.024Z,75
2022-07-28T09:05:25.528Z,75
2022-07-28T09:06:28.296Z,75
2022-07-28T09:07:25.489Z,75
2022-07-28T09:08:25.492Z,75
2022-07-28T09:09:25.575Z,75
2022-07-28T09:10:25.538Z,75
2022-07-28T09:11:25.523Z,75
2022-07-28T09:12:31.779Z,70
2022-07-28T09:13:25.500Z,70
2022-07-28T09:14:26.070Z,70
2022-07-28T09:15:25.552Z,70
2022-07-28T09:16:26.026Z,75
2022-07-28T09:17:28.826Z,70
2022-07-28T09:18:25.534Z,70
2022-07-28T09:19:25.579Z,70
2022-07-28T09:20:25.945Z,70
2022-07-28T09:21:25.535Z,70
2022-07-28T09:22:25.550Z,70
2022-07-28T09:23:53.023Z,70
2022-07-28T09:24:26.088Z,70
2022-07-28T09:25:25.578Z,70
2022-07-28T09:26:25.536Z,70
2022-07-28T09:27:25.527Z,70
2022-07-28T09:28:29.907Z,70
2022-07-28T09:29:25.589Z,70
2022-07-28T09:30:25.751Z,70
2022-07-28T09:31:26.182Z,70
2022-07-28T09:32:25.939Z,70
2022-07-28T09:33:52.025Z,70
2022-07-28T09:34:29.234Z,70
2022-07-28T09:35:25.570Z,70
2022-07-28T09:36:25.790Z,70
2022-07-28T09:37:33.561Z,70
2022-07-28T09:38:25.573Z,70
2022-07-28T09:39:28.345Z,70
2022-07-28T09:40:29.306Z,70
2022-07-28T09:41:25.937Z,70
2022-07-28T09:42:25.580Z,70
2022-07-28T09:43:25.578Z,70
2022-07-28T09:44:28.378Z,70
2022-07-28T09:45:37.377Z,70
2022-07-28T09:46:27.488Z,70
2022-07-28T09:47:27.333Z,70
2022-07-28T09:48:27.130Z,70
2022-07-28T09:49:33.174Z,70
2022-07-28T09:50:28.595Z,70
2022-07-28T09:51:25.617Z,70
2022-07-28T09:52:25.610Z,70
2022-07-28T09:53:29.457Z,70
2022-07-28T09:54:26.688Z,70
2022-07-28T09:55:28.648Z,70
2022-07-28T09:56:25.635Z,70
2022-07-28T09:57:29.703Z,75
2022-07-28T09:58:32.548Z,75
2022-07-28T09:59:30.402Z,70
2022-07-28T10:00:33.881Z,70
2022-07-28T10:01:38.123Z,70
2022-07-28T10:02:27.723Z,70
2022-07-28T10:03:25.942Z,70
2022-07-28T10:04:26.855Z,70
2022-07-28T10:05:25.651Z,70
2022-07-28T10:06:29.585Z,70
2022-07-28T10:07:25.607Z,70
2022-07-28T10:08:25.614Z,70
2022-07-28T10:09:25.677Z,70
2022-07-28T10:10:25.842Z,70
2022-07-28T10:11:25.643Z,70
2022-07-28T10:12:26.799Z,70
2022-07-28T10:13:25.621Z,65
2022-07-28T10:14:29.951Z,70
2022-07-28T10:15:38.212Z,70
2022-07-28T10:16:26.327Z,60
2022-07-28T10:17:25.913Z,60
2022-07-28T10:18:25.654Z,65
2022-07-28T10:19:25.914Z,70
2022-07-28T10:20:25.780Z,60
2022-07-28T10:21:25.675Z,70
2022-07-28T10:22:25.663Z,70
2022-07-28T10:23:28.415Z,70
2022-07-28T10:24:26.568Z,70
2022-07-28T10:25:25.708Z,70
2022-07-28T10:26:25.722Z,70
2022-07-28T10:27:26.559Z,70
2022-07-28T10:28:28.690Z,70
2022-07-28T10:29:25.807Z,70
2022-07-28T10:30:25.671Z,70
2022-07-28T10:31:26.278Z,70
2022-07-28T10:32:26.732Z,70
2022-07-28T10:33:25.667Z,70
2022-07-28T10:34:32.073Z,70
2022-07-28T10:35:26.715Z,70
2022-07-28T10:36:25.776Z,70
2022-07-28T10:37:25.771Z,70
2022-07-28T10:38:25.722Z,70
2022-07-28T10:39:28.923Z,60
2022-07-28T10:40:25.685Z,60
2022-07-28T10:41:25.722Z,60
2022-07-28T10:42:25.690Z,60
2022-07-28T10:43:27.968Z,60
2022-07-28T10:44:26.643Z,60
2022-07-28T10:46:02.910Z,65
2022-07-28T10:46:26.512Z,65
2022-07-28T10:47:40.244Z,70
2022-07-28T10:48:28.475Z,70
2022-07-28T10:49:35.122Z,70
2022-07-28T10:50:29.044Z,70
2022-07-28T10:51:44.571Z,70
2022-07-28T10:53:03.849Z,70
2022-07-28T10:53:28.826Z,70
2022-07-28T10:54:34.494Z,70
2022-07-28T10:55:36.447Z,70
2022-07-28T10:56:30.847Z,70
2022-07-28T10:57:30.042Z,70
2022-07-28T10:58:32.184Z,70
2022-07-28T10:59:33.627Z,70
2022-07-28T11:01:08.563Z,70
2022-07-28T11:01:57.540Z,70
2022-07-28T11:02:35.692Z,70
2022-07-28T11:03:26.667Z,70
2022-07-28T11:04:31.803Z,70
2022-07-28T11:05:25.757Z,70
2022-07-28T11:06:28.314Z,70
2022-07-28T11:07:25.792Z,70
2022-07-28T11:08:25.746Z,70
2022-07-28T11:09:25.864Z,65
2022-07-28T11:10:25.739Z,70
2022-07-28T11:11:25.781Z,65
2022-07-28T11:12:35.904Z,65
2022-07-28T11:13:35.413Z,65
2022-07-28T11:14:27.163Z,70
2022-07-28T11:15:31.985Z,65
2022-07-28T11:16:26.929Z,65
2022-07-28T11:17:44.128Z,65
2022-07-28T11:18:28.194Z,65
2022-07-28T11:20:34.206Z,65
2022-07-28T11:20:44.314Z,65
2022-07-28T11:21:58.463Z,65
2022-07-28T11:22:45.316Z,65
2022-07-28T11:23:49.027Z,65
2022-07-28T11:24:49.891Z,65
2022-07-28T11:25:56.716Z,65
2022-07-28T11:26:43.638Z,65
2022-07-28T11:27:47.646Z,65
2022-07-28T11:28:43.599Z,65
2022-07-28T11:29:44.673Z,65
2022-07-28T11:30:43.994Z,60
2022-07-28T11:31:44.603Z,60
2022-07-28T11:32:53.238Z,65
2022-07-28T11:33:53.524Z,65
2022-07-28T11:34:43.612Z,65
2022-07-28T11:35:46.600Z,45
2022-07-28T11:36:43.608Z,65
2022-07-28T11:37:43.614Z,65
2022-07-28T11:38:43.670Z,65
2022-07-28T11:39:53.115Z,65
2022-07-28T11:40:46.724Z,65
2022-07-28T11:41:51.622Z,65
2022-07-28T11:42:47.271Z,60
2022-07-28T11:43:47.625Z,65
2022-07-28T11:44:46.683Z,65
2022-07-28T11:46:01.046Z,65
2022-07-28T11:46:54.900Z,65
2022-07-28T11:47:43.660Z,70
2022-07-28T11:48:44.247Z,70
2022-07-28T11:49:43.822Z,65
2022-07-28T11:50:43.679Z,60
2022-07-28T11:52:04.820Z,60
2022-07-28T11:52:43.715Z,55
2022-07-28T11:53:43.702Z,60
2022-07-28T11:54:43.664Z,55
2022-07-28T11:56:11.372Z,60
2022-07-28T11:57:48.539Z,60
2022-07-28T11:58:43.713Z,70
2022-07-28T11:59:49.846Z,60
2022-07-28T12:00:43.785Z,55
2022-07-28T12:01:48.828Z,50
2022-07-28T12:02:47.626Z,45
2022-07-28T12:04:03.777Z,65
2022-07-28T12:04:44.106Z,55
2022-07-28T12:05:52.852Z,55
2022-07-28T12:06:49.637Z,50
2022-07-28T12:07:43.902Z,45
2022-07-28T12:08:46.847Z,55
2022-07-28T12:09:51.121Z,65
2022-07-28T12:11:03.767Z,65
2022-07-28T12:11:43.726Z,65
2022-07-28T12:12:43.685Z,65
2022-07-28T12:13:46.548Z,70
2022-07-28T12:14:48.233Z,70
2022-07-28T12:15:43.789Z,70
2022-07-28T12:16:45.403Z,75
2022-07-28T12:17:47.489Z,70
2022-07-28T12:18:49.958Z,55
2022-07-28T12:19:47.459Z,50
2022-07-28T12:20:44.562Z,40
2022-07-28T12:21:55.122Z,50
2022-07-28T12:22:47.544Z,50
2022-07-28T12:23:57.616Z,45
2022-07-28T12:24:57.276Z,45
2022-07-28T12:25:45.904Z,55
2022-07-28T12:26:54.484Z,55
2022-07-28T12:27:52.602Z,55
2022-07-28T12:28:45.453Z,60
2022-07-28T12:29:51.822Z,60
2022-07-28T12:30:50.283Z,60
2022-07-28T12:31:46.533Z,60
2022-07-28T12:32:45.363Z,55
2022-07-28T12:33:44.541Z,45
2022-07-28T12:34:45.071Z,25
2022-07-28T12:35:46.802Z,25
2022-07-28T12:36:49.482Z,50
2022-07-28T12:37:44.587Z,45
2022-07-28T12:38:44.451Z,35
2022-07-28T12:39:45.432Z,35
2022-07-28T12:40:45.466Z,35
2022-07-28T12:41:47.493Z,40
2022-07-28T12:42:44.113Z,40
2022-07-28T12:43:44.281Z,35
2022-07-28T12:44:44.275Z,50
2022-07-28T12:45:44.629Z,35
2022-07-28T12:46:48.421Z,55
2022-07-28T12:47:44.302Z,45
2022-07-28T12:48:44.668Z,35
2022-07-28T12:49:44.667Z,45
2022-07-28T12:50:44.314Z,35
2022-07-28T12:51:47.160Z,45
2022-07-28T12:52:44.276Z,45
2022-07-28T12:53:44.210Z,55
2022-07-28T12:54:56.525Z,50
2022-07-28T12:55:44.134Z,60
2022-07-28T12:56:44.354Z,50
2022-07-28T12:57:53.026Z,35
2022-07-28T12:58:44.325Z,25
2022-07-28T12:59:44.217Z,25
2022-07-28T13:00:44.771Z,25
2022-07-28T13:01:44.726Z,25
2022-07-28T13:02:47.756Z,25
2022-07-28T13:03:44.103Z,35
2022-07-28T13:04:44.034Z,25
2022-07-28T13:05:44.497Z,25
2022-07-28T13:06:44.230Z,25
2022-07-28T13:07:45.356Z,20
2022-07-28T13:08:58.587Z,20
2022-07-28T13:09:48.091Z,20
2022-07-28T13:10:45.647Z,20
2022-07-28T13:11:58.037Z,20
2022-07-28T13:12:44.312Z,20
2022-07-28T13:13:52.382Z,20
2022-07-28T13:14:45.494Z,20
2022-07-28T13:15:43.757Z,25
2022-07-28T13:16:44.786Z,35
2022-07-28T13:17:44.455Z,60
2022-07-28T13:18:44.553Z,35
2022-07-28T13:19:44.278Z,55
2022-07-28T13:20:44.449Z,65
2022-07-28T13:22:05.510Z,65
2022-07-28T13:22:44.507Z,65
2022-07-28T13:23:44.245Z,65
2022-07-28T13:24:44.229Z,65
2022-07-28T13:25:44.463Z,60
2022-07-28T13:26:51.450Z,55
2022-07-28T13:27:44.558Z,65
2022-07-28T13:28:44.420Z,65
2022-07-28T13:29:48.464Z,45
2022-07-28T13:30:44.310Z,25
2022-07-28T13:31:45.058Z,25
2022-07-28T13:32:46.874Z,20
2022-07-28T13:33:44.340Z,25
2022-07-28T13:34:48.634Z,25
2022-07-28T13:35:43.871Z,40
2022-07-28T13:36:43.705Z,45
2022-07-28T13:37:43.881Z,40
2022-07-28T13:38:43.849Z,45
2022-07-28T13:39:43.894Z,35
2022-07-28T13:40:46.689Z,30
2022-07-28T13:42:15.603Z,30
2022-07-28T13:42:59.401Z,30
2022-07-28T13:43:50.428Z,25
2022-07-28T13:44:44.300Z,25
2022-07-28T13:45:49.653Z,25
2022-07-28T13:46:55.206Z,25
2022-07-28T13:47:54.151Z,25
2022-07-28T13:49:02.658Z,45
2022-07-28T13:49:47.834Z,30
2022-07-28T13:50:44.516Z,50
2022-07-28T13:51:48.125Z,25
2022-07-28T13:52:48.246Z,50
2022-07-28T13:53:46.355Z,45
2022-07-28T13:54:44.696Z,40
2022-07-28T13:55:43.926Z,50
2022-07-28T13:56:46.205Z,50
2022-07-28T13:57:54.020Z,45
2022-07-28T13:58:46.140Z,40
2022-07-28T13:59:48.591Z,35
2022-07-28T14:00:45.410Z,30
2022-07-28T14:01:49.593Z,25
2022-07-28T14:02:49.050Z,30
2022-07-28T14:04:06.989Z,25
2022-07-28T14:04:54.877Z,25
2022-07-28T14:05:48.985Z,25
2022-07-28T14:06:46.765Z,25
2022-07-28T14:07:52.662Z,35
2022-07-28T14:08:55.080Z,30
2022-07-28T14:09:52.284Z,30
2022-07-28T14:10:50.446Z,25
2022-07-28T14:11:56.476Z,25
2022-07-28T14:12:49.499Z,20
2022-07-28T14:13:52.481Z,20
2022-07-28T14:14:56.059Z,20
2022-07-28T14:15:43.981Z,20
2022-07-28T14:16:44.562Z,20
2022-07-28T14:17:53.713Z,20
2022-07-28T14:18:47.090Z,20
2022-07-28T14:19:54.990Z,20
2022-07-28T14:20:43.986Z,20
2022-07-28T14:21:43.961Z,20
2022-07-28T14:22:44.549Z,20
2022-07-28T14:23:44.095Z,20